createdAt,value
2022-12-23T00:01:29.266Z,98878.91
2022-12-23T00:04:00.085Z,98880.98
2022-12-23T00:06:30.236Z,98889.47
2022-12-23T00:09:01.340Z,98889.90
2022-12-23T00:11:30.597Z,98891.20
2022-12-23T00:14:21.791Z,98898.60
2022-12-23T00:16:53.152Z,98902.69
2022-12-23T00:19:22.409Z,98899.28
2022-12-23T00:21:53.263Z,98903.61
2022-12-23T00:24:24.720Z,98905.70
2022-12-23T00:26:53.730Z,98906.52
2022-12-23T00:29:24.549Z,98909.77
2022-12-23T00:31:55.423Z,98913.08
2022-12-23T00:34:27.591Z,98919.65
2022-12-23T00:36:57.718Z,98917.49
2022-12-23T00:39:45.290Z,98920.98
2022-12-23T00:42:33.106Z,98926.52
2022-12-23T00:45:31.281Z,98923.97
2022-12-23T00:48:20.578Z,98931.16
2022-12-23T00:50:53.829Z,98929.73
2022-12-23T00:53:24.032Z,98928.20
2022-12-23T00:55:53.599Z,98926.80
2022-12-23T00:58:23.399Z,98929.15
2022-12-23T01:01:13.241Z,98926.24
2022-12-23T01:04:01.435Z,98929.05
2022-12-23T01:06:30.425Z,98925.25
2022-12-23T01:09:01.048Z,98928.48
2022-12-23T01:11:32.388Z,98925.02
2022-12-23T01:14:04.978Z,98924.61
2022-12-23T01:16:36.677Z,98923.91
2022-12-23T01:19:07.326Z,98925.97
2022-12-23T01:21:36.548Z,98928.59
2022-12-23T01:24:08.055Z,98928.20
2022-12-23T01:26:39.208Z,98931.08
2022-12-23T01:29:09.731Z,98932.48
2022-12-23T01:31:38.984Z,98936.34
2022-12-23T01:34:08.377Z,98943.23
2022-12-23T01:36:39.998Z,98943.54
2022-12-23T01:39:09.279Z,98944.08
2022-12-23T01:41:58.359Z,98945.65
2022-12-23T01:44:50.786Z,98950.23
2022-12-23T01:47:33.548Z,98955.39
2022-12-23T01:50:25.848Z,98951.29
2022-12-23T01:53:14.587Z,98955.23
2022-12-23T01:56:32.310Z,98950.04
2022-12-23T01:59:07.840Z,98954.89
2022-12-23T02:01:56.024Z,98957.48
2022-12-23T02:04:26.370Z,98953.98
2022-12-23T02:07:14.000Z,98959.98
2022-12-23T02:09:46.010Z,98956.59
2022-12-23T02:12:47.736Z,98955.55
2022-12-23T02:15:41.785Z,98954.38
2022-12-23T02:18:30.768Z,98952.27
2022-12-23T02:21:19.483Z,98956.19
2022-12-23T02:24:17.451Z,98957.19
2022-12-23T02:26:59.070Z,98953.67
2022-12-23T02:30:06.830Z,98954.55
2022-12-23T02:32:55.521Z,98958.75
2022-12-23T02:35:46.856Z,98958.91
2022-12-23T02:38:27.325Z,98962.29
2022-12-23T02:41:08.642Z,98965.58
2022-12-23T02:44:12.912Z,98971.11
2022-12-23T02:46:54.959Z,98971.48
2022-12-23T02:49:30.937Z,98971.54
2022-12-23T02:52:06.351Z,98965.70
2022-12-23T02:54:41.693Z,98966.34
2022-12-23T02:57:14.839Z,98965.09
2022-12-23T02:59:49.881Z,98961.72
2022-12-23T03:02:20.973Z,98966.39
2022-12-23T03:04:50.313Z,98966.52
2022-12-23T03:07:31.768Z,98962.02
2022-12-23T03:10:22.603Z,98961.73
2022-12-23T03:13:11.955Z,98955.72
2022-12-23T03:16:11.551Z,98955.15
2022-12-23T03:18:41.067Z,98957.55
2022-12-23T03:21:19.483Z,98953.73
2022-12-23T03:23:56.289Z,98958.04
2022-12-23T03:26:40.816Z,98960.12
2022-12-23T03:29:19.767Z,98967.15
2022-12-23T03:31:52.323Z,98969.93
2022-12-23T03:34:31.162Z,98971.42
2022-12-23T03:37:05.312Z,98969.87
2022-12-23T03:39:49.538Z,98968.66
2022-12-23T03:42:26.633Z,98963.70
2022-12-23T03:45:42.149Z,98964.77
2022-12-23T03:48:14.271Z,98971.73
2022-12-23T03:50:49.613Z,98976.43
2022-12-23T03:53:27.767Z,98977.11
2022-12-23T03:56:04.712Z,98973.94
2022-12-23T03:58:45.601Z,98975.20
2022-12-23T04:01:40.972Z,98975.88
2022-12-23T04:04:19.141Z,98969.45
2022-12-23T04:07:05.299Z,98968.67
2022-12-23T04:09:38.251Z,98975.95
2022-12-23T04:12:08.443Z,98970.42
2022-12-23T04:14:44.525Z,98969.98
2022-12-23T04:17:14.503Z,98968.08
2022-12-23T04:19:45.982Z,98963.08
2022-12-23T04:22:19.543Z,98962.62
2022-12-23T04:24:48.952Z,98962.89
2022-12-23T04:27:18.226Z,98957.15
2022-12-23T04:29:49.512Z,98958.17
2022-12-23T04:32:18.643Z,98957.83
2022-12-23T04:35:43.123Z,98962.58
2022-12-23T04:38:16.508Z,98969.30
2022-12-23T04:40:47.930Z,98967.81
2022-12-23T04:43:27.353Z,98965.43
2022-12-23T04:46:24.472Z,98969.69
2022-12-23T04:48:55.026Z,98975.04
2022-12-23T04:51:24.218Z,98975.41
2022-12-23T04:53:55.975Z,98976.13
2022-12-23T04:56:25.584Z,98982.41
2022-12-23T04:58:55.968Z,98983.30
2022-12-23T05:01:25.111Z,98982.16
2022-12-23T05:03:57.414Z,98982.59
2022-12-23T05:06:37.604Z,98982.55
2022-12-23T05:09:06.848Z,98986.05
2022-12-23T05:11:42.149Z,98987.73
2022-12-23T05:14:14.471Z,98989.31
2022-12-23T05:16:45.665Z,98983.04
2022-12-23T05:19:16.393Z,98982.20
2022-12-23T05:21:46.371Z,98984.12
2022-12-23T05:24:16.056Z,98982.98
2022-12-23T05:26:52.835Z,98975.61
2022-12-23T05:29:28.983Z,98979.61
2022-12-23T05:32:02.192Z,98974.40
2022-12-23T05:34:31.325Z,98972.39
2022-12-23T05:37:31.931Z,98978.09
2022-12-23T05:40:02.621Z,98980.61
2022-12-23T05:42:42.750Z,98981.42
2022-12-23T05:45:36.481Z,98980.69
2022-12-23T05:48:31.684Z,98982.56
2022-12-23T05:51:24.944Z,98980.66
2022-12-23T05:54:22.266Z,98984.26
2022-12-23T06:04:41.407Z,99005.02
2022-12-23T06:07:10.613Z,98999.23
2022-12-23T06:09:41.209Z,98998.83
2022-12-23T06:12:11.971Z,99000.02
2022-12-23T06:14:43.572Z,98998.73
2022-12-23T06:17:15.285Z,99001.35
2022-12-23T06:19:45.029Z,99003.20
2022-12-23T06:22:15.081Z,99003.30
2022-12-23T06:24:47.878Z,99004.52
2022-12-23T06:27:17.891Z,99006.67
2022-12-23T06:29:48.827Z,99006.52
2022-12-23T06:32:17.835Z,99006.37
2022-12-23T06:34:47.180Z,99013.96
2022-12-23T06:37:17.928Z,99017.04
2022-12-23T06:39:49.683Z,99017.46
2022-12-23T06:42:19.966Z,99011.35
2022-12-23T06:44:53.056Z,99010.24
2022-12-23T06:47:22.343Z,99007.52
2022-12-23T06:49:53.043Z,99013.41
2022-12-23T06:52:23.492Z,99016.02
2022-12-23T06:54:54.569Z,99015.11
2022-12-23T06:57:24.803Z,99010.91
2022-12-23T06:59:53.802Z,99013.98
2022-12-23T07:02:24.761Z,99008.23
2022-12-23T07:04:54.420Z,99009.98
2022-12-23T07:07:25.675Z,99014.41
2022-12-23T07:09:56.754Z,99014.54
2022-12-23T07:12:25.748Z,99009.36
2022-12-23T07:14:57.307Z,99006.13
2022-12-23T07:17:27.079Z,99005.25
2022-12-23T07:19:57.089Z,99007.36
2022-12-23T07:22:26.582Z,99007.56
2022-12-23T07:24:55.620Z,99006.95
2022-12-23T07:27:27.230Z,99000.75
2022-12-23T07:29:58.318Z,99000.44
2022-12-23T07:32:28.251Z,99003.52
2022-12-23T07:34:57.996Z,99010.60
2022-12-23T07:37:28.379Z,99021.59
2022-12-23T07:40:02.122Z,99027.38
2022-12-23T07:42:46.640Z,99037.27
2022-12-23T07:46:02.508Z,99039.86
2022-12-23T07:48:55.728Z,99047.05
2022-12-23T07:51:44.515Z,99044.91
2022-12-23T07:58:09.232Z,99034.04
2022-12-23T08:00:46.721Z,99035.67
2022-12-23T08:03:17.643Z,99035.05
2022-12-23T08:06:02.604Z,99036.39
2022-12-23T08:08:34.525Z,99034.85
2022-12-23T08:11:10.331Z,99026.84
2022-12-23T08:13:43.271Z,99024.62
2022-12-23T08:19:03.598Z,99029.09
2022-12-23T08:21:57.582Z,99028.59
2022-12-23T08:25:00.454Z,99032.77
2022-12-23T08:27:53.051Z,99030.15
2022-12-23T08:33:54.537Z,99032.09
2022-12-23T08:40:18.107Z,99026.63
2022-12-23T08:43:54.246Z,99034.11
2022-12-23T08:46:56.793Z,99033.88
2022-12-23T08:49:29.966Z,99032.39
2022-12-23T08:52:01.719Z,99029.24
2022-12-23T08:54:31.722Z,99024.41
2022-12-23T08:57:03.023Z,99019.21
2022-12-23T08:59:36.850Z,99022.39
2022-12-23T09:02:12.780Z,99025.30
2022-12-23T09:04:48.788Z,99021.38
2022-12-23T09:07:20.421Z,99018.09
2022-12-23T09:09:53.142Z,99011.20
2022-12-23T09:12:26.721Z,99005.44
2022-12-23T09:15:11.390Z,99003.23
2022-12-23T09:17:45.750Z,98999.06
2022-12-23T09:20:19.445Z,98999.02
2022-12-23T09:22:56.247Z,99000.63
2022-12-23T09:25:29.456Z,99002.80
2022-12-23T09:28:00.376Z,98999.95
2022-12-23T09:30:30.283Z,98999.79
2022-12-23T09:32:59.683Z,98998.55
2022-12-23T09:35:30.367Z,98998.20
2022-12-23T09:37:59.820Z,98989.95
2022-12-23T09:40:35.208Z,98990.00
2022-12-23T09:43:07.841Z,98991.45
2022-12-23T09:50:02.855Z,98992.80
2022-12-23T09:52:51.655Z,98985.85
2022-12-23T09:55:24.279Z,98985.27
2022-12-23T09:58:20.302Z,98981.74
2022-12-23T10:01:10.283Z,98982.02
2022-12-23T10:04:31.793Z,98986.92
2022-12-23T10:07:04.510Z,98985.81
2022-12-23T10:09:38.029Z,98978.98
2022-12-23T10:12:29.659Z,98977.29
2022-12-23T10:15:03.566Z,98972.16
2022-12-23T10:17:42.758Z,98969.41
2022-12-23T10:20:29.626Z,98967.69
2022-12-23T10:23:01.592Z,98963.48
2022-12-23T10:25:39.273Z,98959.56
2022-12-23T10:28:15.065Z,98959.83
2022-12-23T10:31:23.326Z,98952.40
2022-12-23T10:34:10.113Z,98952.32
2022-12-23T10:37:24.488Z,98948.13
2022-12-23T10:40:12.339Z,98939.92
2022-12-23T10:42:53.096Z,98938.22
2022-12-23T10:49:57.547Z,98937.13
2022-12-23T10:52:37.489Z,98932.59
2022-12-23T10:55:11.187Z,98929.86
2022-12-23T10:57:41.256Z,98918.43
2022-12-23T11:00:25.606Z,98913.74
2022-12-23T11:03:23.917Z,98910.37
2022-12-23T11:05:54.687Z,98904.83
2022-12-23T11:08:27.094Z,98901.88
2022-12-23T11:10:57.430Z,98898.23
2022-12-23T11:13:41.141Z,98895.69
2022-12-23T11:16:27.231Z,98891.77
2022-12-23T11:19:01.023Z,98889.06
2022-12-23T11:21:37.854Z,98891.14
2022-12-23T11:24:17.163Z,98891.73
2022-12-23T11:27:00.438Z,98892.05
2022-12-23T11:29:56.132Z,98890.11
2022-12-23T11:32:28.554Z,98889.65
2022-12-23T11:35:01.297Z,98892.40
2022-12-23T11:37:42.113Z,98891.52
2022-12-23T11:40:36.357Z,98893.91
2022-12-23T11:43:15.107Z,98896.38
2022-12-23T11:45:47.416Z,98899.45
2022-12-23T11:48:31.170Z,98895.67
2022-12-23T11:51:07.288Z,98895.17
2022-12-23T11:53:46.450Z,98896.59
2022-12-23T11:56:17.471Z,98902.77
2022-12-23T11:58:56.356Z,98900.02
2022-12-23T12:01:33.108Z,98901.73
2022-12-23T12:04:11.007Z,98901.42
2022-12-23T12:06:52.676Z,98902.27
2022-12-23T12:09:29.479Z,98904.35
2022-12-23T12:12:19.759Z,98909.66
2022-12-23T12:14:57.185Z,98911.70
2022-12-23T12:17:45.517Z,98912.48
2022-12-23T12:20:23.827Z,98913.66
2022-12-23T12:23:02.158Z,98916.35
2022-12-23T12:26:02.414Z,98915.36
2022-12-23T12:28:50.276Z,98914.91
2022-12-23T12:31:41.136Z,98919.99
2022-12-23T12:34:19.326Z,98923.21
2022-12-23T12:37:04.640Z,98925.98
2022-12-23T12:39:42.136Z,98932.25
2022-12-23T12:42:34.915Z,98932.86
2022-12-23T12:45:55.892Z,98926.46
2022-12-23T12:48:46.911Z,98921.79
2022-12-23T12:51:26.073Z,98916.48
2022-12-23T12:54:05.193Z,98913.00
2022-12-23T12:56:51.052Z,98913.02
2022-12-23T12:59:22.192Z,98914.95
2022-12-23T13:02:30.402Z,98914.61
2022-12-23T13:05:17.702Z,98912.45
2022-12-23T13:08:22.768Z,98916.71
2022-12-23T13:11:11.346Z,98916.98
2022-12-23T13:14:07.247Z,98920.88
2022-12-23T13:16:54.767Z,98920.36
2022-12-23T13:19:41.053Z,98919.56
2022-12-23T13:22:28.140Z,98930.44
2022-12-23T13:25:10.741Z,98931.46
2022-12-23T13:28:38.852Z,98935.27
2022-12-23T13:31:38.391Z,98934.98
2022-12-23T13:34:33.791Z,98935.38
2022-12-23T13:37:09.292Z,98939.88
2022-12-23T13:39:47.563Z,98939.95
2022-12-23T13:42:41.601Z,98938.77
2022-12-23T13:45:20.313Z,98934.64
2022-12-23T13:48:29.780Z,98936.52
2022-12-23T13:51:14.626Z,98933.48
2022-12-23T13:54:05.328Z,98933.38
2022-12-23T13:56:44.653Z,98930.02
2022-12-23T13:59:17.861Z,98931.43
2022-12-23T14:01:50.214Z,98933.00
2022-12-23T14:04:58.567Z,98936.98
2022-12-23T14:07:32.495Z,98943.31
2022-12-23T14:10:20.344Z,98943.23
2022-12-23T14:12:52.600Z,98939.35
2022-12-23T14:15:37.848Z,98932.88
2022-12-23T14:18:07.249Z,98929.14
2022-12-23T14:21:12.224Z,98927.66
2022-12-23T14:24:29.171Z,98933.05
2022-12-23T14:26:58.145Z,98932.60
2022-12-23T14:29:47.485Z,98930.66
2022-12-23T14:32:28.099Z,98926.29
2022-12-23T14:35:18.504Z,98930.98
2022-12-23T14:38:23.083Z,98934.98
2022-12-23T14:41:37.516Z,98934.87
2022-12-23T14:44:39.237Z,98932.48
2022-12-23T14:47:34.996Z,98939.55
2022-12-23T14:50:35.105Z,98945.13
2022-12-23T14:53:37.832Z,98949.95
2022-12-23T14:56:10.379Z,98950.02
2022-12-23T14:58:53.096Z,98952.42
2022-12-23T15:01:34.305Z,98956.43
2022-12-23T15:04:36.967Z,98958.77
2022-12-23T15:07:17.209Z,98959.25
2022-12-23T15:10:00.792Z,98961.02
2022-12-23T15:12:37.290Z,98968.43
2022-12-23T15:15:18.666Z,98973.12
2022-12-23T15:17:49.142Z,98976.77
2022-12-23T15:20:24.852Z,98972.48
2022-12-23T15:23:03.330Z,98969.28
2022-12-23T15:25:36.220Z,98970.05
2022-12-23T15:28:08.050Z,98974.90
2022-12-23T15:30:53.022Z,98976.55
2022-12-23T15:36:31.137Z,98968.54
2022-12-23T15:39:03.884Z,98973.50
2022-12-23T15:41:43.373Z,98970.71
2022-12-23T15:44:23.300Z,98970.64
2022-12-23T15:47:47.072Z,98968.64
2022-12-23T15:50:19.233Z,98965.09
2022-12-23T15:52:50.573Z,98958.23
2022-12-23T15:55:31.899Z,98961.41
2022-12-23T15:58:04.120Z,98969.52
2022-12-23T16:00:42.106Z,98967.90
2022-12-23T16:03:36.045Z,98968.58
2022-12-23T16:06:25.731Z,98973.86
2022-12-23T16:09:03.683Z,98973.44
2022-12-23T16:11:59.813Z,98976.94
2022-12-23T16:14:33.501Z,98975.88
2022-12-23T16:17:18.829Z,98982.25
2022-12-23T16:19:58.595Z,98983.84
2022-12-23T16:22:36.401Z,98987.80
2022-12-23T16:25:48.329Z,98993.86
2022-12-23T16:28:39.993Z,98991.71
2022-12-23T16:34:22.960Z,98996.63
2022-12-23T16:36:56.871Z,98998.52
2022-12-23T16:39:29.828Z,98999.95
2022-12-23T16:41:59.912Z,99003.76
2022-12-23T16:44:30.417Z,99005.20
2022-12-23T16:47:36.161Z,99006.88
2022-12-23T16:50:18.780Z,99007.30
2022-12-23T16:52:49.865Z,99010.53
2022-12-23T16:55:27.824Z,99021.23
2022-12-23T16:59:11.237Z,99025.19
2022-12-23T17:01:48.186Z,99032.44
2022-12-23T17:04:21.757Z,99018.98
2022-12-23T17:06:58.824Z,99026.36
2022-12-23T17:14:19.984Z,99026.85
2022-12-23T17:17:22.445Z,99017.92
2022-12-23T17:19:58.978Z,99024.50
2022-12-23T17:22:33.794Z,99021.88
2022-12-23T17:25:03.643Z,99026.40
2022-12-23T17:27:36.163Z,99023.04
2022-12-23T17:30:16.736Z,99025.55
2022-12-23T17:32:55.220Z,99018.45
2022-12-23T17:35:27.957Z,99016.48
2022-12-23T17:38:02.246Z,99012.73
2022-12-23T17:40:32.848Z,99011.88
2022-12-23T17:43:02.657Z,99013.14
2022-12-23T17:50:09.581Z,99015.43
2022-12-23T17:52:41.927Z,99013.88
2022-12-23T17:55:22.600Z,99013.27
2022-12-23T17:58:00.400Z,99017.88
2022-12-23T18:00:34.602Z,99023.77
2022-12-23T18:03:08.872Z,99021.10
2022-12-23T18:05:39.494Z,99025.29
2022-12-23T18:08:12.217Z,99031.69
2022-12-23T18:10:43.170Z,99039.61
2022-12-23T18:13:18.936Z,99045.95
2022-12-23T18:15:48.587Z,99040.86
2022-12-23T18:18:27.529Z,99038.08
2022-12-23T18:21:04.004Z,99043.26
2022-12-23T18:23:38.097Z,99045.07
2022-12-23T18:26:07.844Z,99047.00
2022-12-23T18:28:44.955Z,99046.55
2022-12-23T18:31:30.532Z,99043.62
2022-12-23T18:34:08.467Z,99037.69
2022-12-23T18:36:46.866Z,99033.09
2022-12-23T18:39:19.152Z,99031.02
2022-12-23T18:41:52.425Z,99035.61
2022-12-23T18:44:38.470Z,99042.74
2022-12-23T18:47:14.560Z,99044.45
2022-12-23T18:49:50.964Z,99043.95
2022-12-23T18:52:23.368Z,99042.23
2022-12-23T18:55:40.402Z,99048.11
2022-12-23T18:58:22.849Z,99056.37
2022-12-23T19:01:00.276Z,99058.29
2022-12-23T19:06:46.683Z,99070.08
2022-12-23T19:10:05.562Z,99072.73
2022-12-23T19:13:02.962Z,99077.95
2022-12-23T19:15:57.399Z,99077.55
2022-12-23T19:18:45.681Z,99081.98
2022-12-23T19:21:22.075Z,99084.11
2022-12-23T19:24:12.037Z,99088.77
2022-12-23T19:29:43.747Z,99091.18
2022-12-23T19:32:22.906Z,99095.10
2022-12-23T19:34:56.359Z,99100.14
2022-12-23T19:37:37.078Z,99098.38
2022-12-23T19:40:15.497Z,99097.86
2022-12-23T19:42:45.111Z,99099.12
2022-12-23T19:49:50.299Z,99094.29
2022-12-23T19:52:20.199Z,99089.30
2022-12-23T19:54:50.560Z,99085.89
2022-12-23T19:57:22.141Z,99086.16
2022-12-23T19:59:54.451Z,99085.64
2022-12-23T20:02:24.048Z,99086.75
2022-12-23T20:04:53.969Z,99093.34
2022-12-23T20:07:27.324Z,99092.05
2022-12-23T20:09:57.065Z,99097.48
2022-12-23T20:12:28.335Z,99097.89
2022-12-23T20:14:57.835Z,99097.50
2022-12-23T20:17:28.532Z,99095.64
2022-12-23T20:19:57.861Z,99097.74
2022-12-23T20:22:28.427Z,99095.58
2022-12-23T20:25:00.317Z,99095.43
2022-12-23T20:27:31.830Z,99092.52
2022-12-23T20:30:06.471Z,99090.66
2022-12-23T20:32:37.499Z,99091.95
2022-12-23T20:35:08.633Z,99085.59
2022-12-23T20:37:39.252Z,99076.98
2022-12-23T20:40:10.192Z,99081.70
2022-12-23T20:42:40.135Z,99081.67
2022-12-23T20:45:13.859Z,99083.84
2022-12-23T20:47:44.836Z,99087.77
2022-12-23T20:50:15.249Z,99093.65
2022-12-23T20:52:47.647Z,99098.32
2022-12-23T20:55:17.850Z,99107.89
2022-12-23T20:57:48.095Z,99105.58
2022-12-23T21:00:19.803Z,99108.35
2022-12-23T21:02:48.943Z,99105.72
2022-12-23T21:05:19.620Z,99107.28
2022-12-23T21:07:49.477Z,99106.20
2022-12-23T21:10:18.552Z,99114.14
2022-12-23T21:12:50.419Z,99118.33
2022-12-23T21:15:23.255Z,99117.31
2022-12-23T21:17:52.535Z,99116.52
2022-12-23T21:20:21.734Z,99113.23
2022-12-23T21:22:51.339Z,99117.50
2022-12-23T21:25:21.142Z,99115.87
2022-12-23T21:27:52.065Z,99119.89
2022-12-23T21:30:21.496Z,99124.02
2022-12-23T21:32:53.981Z,99121.88
2022-12-23T21:35:23.859Z,99117.69
2022-12-23T21:37:52.859Z,99117.88
2022-12-23T21:40:24.949Z,99120.38
2022-12-23T21:43:08.293Z,99126.69
2022-12-23T21:50:17.264Z,99128.40
2022-12-23T21:53:08.635Z,99128.06
2022-12-23T21:55:51.869Z,99134.96
2022-12-23T21:58:22.667Z,99132.08
2022-12-23T22:00:51.615Z,99133.46
2022-12-23T22:03:24.045Z,99130.64
2022-12-23T22:05:54.268Z,99131.36
2022-12-23T22:08:24.731Z,99136.52
2022-12-23T22:11:23.654Z,99141.20
2022-12-23T22:13:55.533Z,99142.25
2022-12-23T22:16:26.738Z,99140.09
2022-12-23T22:22:44.796Z,99139.38
2022-12-23T22:25:16.210Z,99133.13
2022-12-23T22:27:52.332Z,99136.02
2022-12-23T22:30:23.318Z,99143.64
2022-12-23T22:32:53.958Z,99156.44
2022-12-23T22:35:23.128Z,99161.04
2022-12-23T22:37:53.758Z,99171.41
2022-12-23T22:40:27.794Z,99174.28
2022-12-23T22:42:57.959Z,99171.92
2022-12-23T22:45:29.447Z,99174.33
2022-12-23T22:47:59.574Z,99171.86
2022-12-23T22:50:28.488Z,99168.57
2022-12-23T22:52:59.691Z,99173.28
2022-12-23T22:55:29.597Z,99172.11
2022-12-23T22:57:59.293Z,99167.70
2022-12-23T23:00:28.776Z,99168.70
2022-12-23T23:02:58.302Z,99163.94
2022-12-23T23:05:29.567Z,99160.84
2022-12-23T23:07:59.924Z,99154.13
2022-12-23T23:10:30.548Z,99151.14
2022-12-23T23:13:01.068Z,99152.22
2022-12-23T23:15:31.928Z,99153.48
2022-12-23T23:18:02.460Z,99155.09
2022-12-23T23:20:31.926Z,99154.23
2022-12-23T23:23:18.741Z,99151.70
2022-12-23T23:25:51.435Z,99147.83
2022-12-23T23:28:23.875Z,99142.21
2022-12-23T23:31:10.010Z,99140.96
2022-12-23T23:33:47.544Z,99137.73
2022-12-23T23:36:16.884Z,99138.37
2022-12-23T23:38:48.668Z,99140.46
2022-12-23T23:41:24.337Z,99142.47
2022-12-23T23:43:54.937Z,99143.64
2022-12-23T23:50:45.006Z,99141.49
2022-12-23T23:53:15.587Z,99142.88
2022-12-23T23:55:47.789Z,99146.93
2022-12-23T23:58:18.675Z,99145.90
